createdAt,value
2018-12-04T00:00:40.848Z,87.60
2018-12-04T00:07:04.419Z,88.64
2018-12-04T00:10:11.941Z,88.75
2018-12-04T00:13:19.500Z,89.37
2018-12-04T00:16:27.056Z,89.44
2018-12-04T00:19:34.540Z,88.75
2018-12-04T00:22:51.942Z,88.58
2018-12-04T00:26:09.604Z,89.29
2018-12-04T00:29:17.459Z,88.66
2018-12-04T00:32:25.139Z,88.32
2018-12-04T00:35:32.621Z,88.30
2018-12-04T00:38:40.298Z,88.35
2018-12-04T00:41:48.132Z,88.38
2018-12-04T00:44:55.756Z,88.98
2018-12-04T00:48:13.153Z,89.17
2018-12-04T00:51:20.998Z,88.53
2018-12-04T00:54:28.485Z,88.79
2018-12-04T00:57:36.061Z,88.86
2018-12-04T01:00:43.619Z,88.71
2018-12-04T01:04:01.524Z,88.43
2018-12-04T01:07:09.540Z,89.42
2018-12-04T01:10:17.132Z,88.68
2018-12-04T01:13:34.431Z,88.11
2018-12-04T01:16:51.896Z,88.11
2018-12-04T01:20:10.752Z,87.90
2018-12-04T01:23:28.377Z,88.03
2018-12-04T01:26:45.815Z,87.40
2018-12-04T01:30:03.168Z,86.89
2018-12-04T01:33:20.549Z,87.07
2018-12-04T01:36:38.008Z,87.34
2018-12-04T01:39:55.404Z,87.19
2018-12-04T01:43:12.864Z,87.32
2018-12-04T01:46:30.206Z,86.56
2018-12-04T01:49:48.113Z,86.59
2018-12-04T01:53:05.540Z,86.60
2018-12-04T01:56:22.995Z,86.11
2018-12-04T01:59:40.403Z,85.94
2018-12-04T02:02:57.861Z,86.73
2018-12-04T02:06:15.292Z,87.06
2018-12-04T02:09:32.599Z,86.50
2018-12-04T02:12:50.240Z,86.61
2018-12-04T02:16:07.552Z,86.38
2018-12-04T02:19:25.280Z,86.75
2018-12-04T02:22:48.720Z,86.74
2018-12-04T02:26:06.537Z,86.50
2018-12-04T02:29:14.704Z,86.33
2018-12-04T02:32:22.331Z,86.18
2018-12-04T02:35:29.897Z,86.00
2018-12-04T02:38:37.420Z,86.40
2018-12-04T02:41:45.039Z,86.50
2018-12-04T02:44:52.658Z,86.03
2018-12-04T02:48:00.628Z,86.48
2018-12-04T02:51:08.314Z,86.12
2018-12-04T02:54:15.832Z,86.60
2018-12-04T02:57:33.154Z,86.51
2018-12-04T03:00:50.668Z,86.16
2018-12-04T03:04:08.017Z,85.89
2018-12-04T03:07:16.111Z,85.59
2018-12-04T03:10:34.276Z,86.17
2018-12-04T03:13:51.718Z,85.92
2018-12-04T03:16:59.285Z,85.87
2018-12-04T03:20:07.624Z,85.72
2018-12-04T03:23:25.096Z,85.95
2018-12-04T03:26:42.459Z,85.64
2018-12-04T03:29:59.903Z,85.77
2018-12-04T03:33:38.700Z,85.55
2018-12-04T03:36:46.516Z,85.51
2018-12-04T03:39:54.046Z,85.25
2018-12-04T03:43:02.037Z,85.32
2018-12-04T03:46:09.587Z,85.17
2018-12-04T03:49:17.276Z,84.60
2018-12-04T03:52:34.758Z,84.70
2018-12-04T03:55:52.053Z,85.11
2018-12-04T03:59:09.940Z,84.87
2018-12-04T04:02:17.805Z,85.07
2018-12-04T04:05:36.572Z,84.75
2018-12-04T04:08:44.084Z,84.35
2018-12-04T04:11:51.708Z,84.59
2018-12-04T04:15:10.401Z,84.29
2018-12-04T04:18:17.936Z,84.20
2018-12-04T04:21:35.527Z,84.24
2018-12-04T04:24:43.129Z,83.78
2018-12-04T04:27:50.705Z,83.48
2018-12-04T04:30:58.289Z,83.33
2018-12-04T04:34:05.777Z,83.23
2018-12-04T04:37:23.116Z,81.96
2018-12-04T04:40:40.665Z,81.92
2018-12-04T04:43:48.933Z,82.17
2018-12-04T04:46:56.414Z,82.42
2018-12-04T04:50:14.076Z,82.26
2018-12-04T04:53:31.424Z,82.03
2018-12-04T04:56:48.749Z,82.41
2018-12-04T05:00:07.444Z,81.77
2018-12-04T05:03:15.009Z,82.06
2018-12-04T05:06:32.445Z,81.80
2018-12-04T05:09:49.954Z,82.12
2018-12-04T05:12:57.573Z,82.34
2018-12-04T05:16:05.575Z,82.49
2018-12-04T05:19:13.084Z,82.74
2018-12-04T05:22:31.013Z,82.68
2018-12-04T05:25:38.595Z,82.82
2018-12-04T05:28:46.146Z,83.31
2018-12-04T05:31:53.814Z,83.51
2018-12-04T05:35:11.125Z,83.32
2018-12-04T05:38:28.568Z,83.65
2018-12-04T05:41:46.532Z,83.27
2018-12-04T05:44:54.108Z,82.91
2018-12-04T05:48:01.613Z,82.63
2018-12-04T05:51:09.196Z,82.17
2018-12-04T05:54:26.641Z,82.40
2018-12-04T05:57:44.068Z,82.19
2018-12-04T06:01:01.579Z,82.35
2018-12-04T06:04:09.108Z,82.35
2018-12-04T06:07:16.604Z,82.33
2018-12-04T06:10:24.184Z,82.25
2018-12-04T06:13:31.785Z,82.53
2018-12-04T06:16:49.311Z,82.25
2018-12-04T06:20:08.716Z,82.74
2018-12-04T06:23:16.300Z,82.51
2018-12-04T06:26:33.916Z,82.04
2018-12-04T06:29:52.388Z,81.86
2018-12-04T06:33:09.750Z,81.24
2018-12-04T06:36:18.024Z,81.56
2018-12-04T06:39:25.559Z,81.44
2018-12-04T06:42:43.295Z,81.16
2018-12-04T06:45:51.552Z,80.91
2018-12-04T06:48:59.744Z,82.00
2018-12-04T06:52:07.365Z,82.20
2018-12-04T06:55:15.301Z,81.44
2018-12-04T06:58:22.876Z,82.84
2018-12-04T07:01:31.145Z,83.09
2018-12-04T07:04:48.537Z,84.74
2018-12-04T07:08:06.207Z,84.26
2018-12-04T07:11:13.750Z,83.67
2018-12-04T07:14:21.302Z,82.75
2018-12-04T07:17:28.854Z,82.63
2018-12-04T07:20:36.409Z,83.95
2018-12-04T07:23:53.793Z,82.44
2018-12-04T07:27:11.228Z,81.59
2018-12-04T07:30:31.236Z,81.13
2018-12-04T07:33:38.741Z,80.41
2018-12-04T07:36:46.241Z,80.97
2018-12-04T07:39:54.212Z,81.86
2018-12-04T07:43:11.632Z,81.87
2018-12-04T07:46:29.205Z,80.97
2018-12-04T07:49:36.776Z,80.80
2018-12-04T07:52:44.364Z,79.88
2018-12-04T07:55:51.993Z,80.61
2018-12-04T07:58:59.597Z,79.85
2018-12-04T08:02:07.459Z,80.23
2018-12-04T08:05:14.945Z,79.29
2018-12-04T08:08:23.004Z,78.48
2018-12-04T08:11:30.592Z,79.31
2018-12-04T08:14:38.774Z,79.49
2018-12-04T08:17:46.432Z,78.85
2018-12-04T08:20:54.004Z,79.36
2018-12-04T08:24:01.716Z,78.69
2018-12-04T08:27:29.484Z,78.07
2018-12-04T08:30:37.081Z,76.13
2018-12-04T08:33:44.641Z,77.47
2018-12-04T08:36:52.125Z,75.43
2018-12-04T08:39:59.772Z,74.35
2018-12-04T08:43:07.225Z,73.16
2018-12-04T08:46:14.719Z,74.09
2018-12-04T08:49:22.516Z,73.29
2018-12-04T08:52:40.001Z,72.81
2018-12-04T08:55:57.313Z,72.91
2018-12-04T08:59:14.767Z,72.81
2018-12-04T09:02:32.184Z,71.63
2018-12-04T09:05:49.728Z,71.38
2018-12-04T09:09:11.052Z,70.45
2018-12-04T09:12:18.544Z,70.64
2018-12-04T09:15:26.389Z,71.23
2018-12-04T09:18:34.195Z,71.86
2018-12-04T09:21:41.982Z,71.13
2018-12-04T09:24:59.712Z,71.90
2018-12-04T09:28:17.677Z,71.71
2018-12-04T09:31:26.144Z,72.31
2018-12-04T09:34:33.617Z,70.69
2018-12-04T09:37:51.008Z,69.68
2018-12-04T09:41:08.409Z,70.36
2018-12-04T09:44:25.809Z,70.21
2018-12-04T09:47:43.228Z,69.56
2018-12-04T09:51:00.649Z,68.42
2018-12-04T09:54:18.095Z,67.91
2018-12-04T09:57:35.541Z,67.88
2018-12-04T10:00:52.923Z,66.23
2018-12-04T10:04:10.388Z,64.16
2018-12-04T10:07:28.333Z,63.92
2018-12-04T10:10:35.837Z,63.56
2018-12-04T10:13:43.343Z,62.63
2018-12-04T10:16:50.825Z,61.86
2018-12-04T10:20:12.348Z,60.88
2018-12-04T10:23:19.860Z,60.37
2018-12-04T10:26:27.824Z,58.46
2018-12-04T10:29:35.661Z,57.93
2018-12-04T10:32:45.176Z,58.16
2018-12-04T10:36:02.700Z,57.72
2018-12-04T10:39:20.072Z,59.11
2018-12-04T10:42:38.060Z,59.95
2018-12-04T10:45:45.536Z,57.61
2018-12-04T10:48:53.211Z,58.40
2018-12-04T10:52:00.712Z,58.83
2018-12-04T10:55:18.126Z,58.50
2018-12-04T10:58:35.577Z,57.85
2018-12-04T11:02:26.008Z,56.01
2018-12-04T11:05:33.659Z,54.62
2018-12-04T11:08:51.237Z,55.74
2018-12-04T11:12:12.224Z,56.91
2018-12-04T11:15:18.128Z,60.38
2018-12-04T11:18:25.679Z,62.96
2018-12-04T11:21:33.154Z,64.38
2018-12-04T11:24:40.666Z,65.18
2018-12-04T11:27:58.011Z,66.64
2018-12-04T11:31:15.416Z,67.65
2018-12-04T11:34:32.960Z,66.68
2018-12-04T11:37:50.288Z,66.37
2018-12-04T11:40:57.964Z,65.87
2018-12-04T11:44:05.905Z,62.91
2018-12-04T11:47:13.467Z,61.19
2018-12-04T11:50:31.036Z,58.64
2018-12-04T11:53:48.362Z,57.80
2018-12-04T11:57:05.778Z,57.34
2018-12-04T12:00:27.223Z,57.09
2018-12-04T12:03:34.808Z,57.27
2018-12-04T12:06:43.489Z,58.09
2018-12-04T12:09:52.057Z,58.79
2018-12-04T12:12:59.534Z,58.98
2018-12-04T12:16:07.076Z,59.43
2018-12-04T12:19:24.688Z,60.19
2018-12-04T12:22:42.012Z,59.16
2018-12-04T12:25:59.500Z,59.06
2018-12-04T12:29:16.917Z,59.76
2018-12-04T12:32:34.397Z,59.96
2018-12-04T12:35:51.751Z,59.04
2018-12-04T12:39:10.177Z,56.22
2018-12-04T12:42:17.656Z,56.02
2018-12-04T12:45:26.144Z,53.52
2018-12-04T12:48:33.681Z,52.39
2018-12-04T12:51:41.222Z,52.43
2018-12-04T12:54:58.625Z,52.54
2018-12-04T12:58:16.135Z,52.31
2018-12-04T13:01:33.472Z,52.86
2018-12-04T13:04:50.905Z,52.53
2018-12-04T13:08:08.860Z,52.73
2018-12-04T13:11:16.454Z,52.92
2018-12-04T13:14:23.961Z,52.62
2018-12-04T13:17:31.565Z,52.50
2018-12-04T13:20:48.989Z,54.08
2018-12-04T13:24:06.388Z,54.72
2018-12-04T13:27:23.896Z,54.90
2018-12-04T13:30:41.274Z,54.46
2018-12-04T13:34:04.665Z,55.00
2018-12-04T13:37:22.051Z,54.60
2018-12-04T13:40:39.508Z,53.80
2018-12-04T13:43:56.927Z,54.16
2018-12-04T13:47:14.336Z,54.64
2018-12-04T13:50:31.804Z,52.90
2018-12-04T13:53:49.213Z,53.29
2018-12-04T13:57:06.705Z,53.40
2018-12-04T14:00:24.024Z,54.11
2018-12-04T14:03:42.025Z,53.40
2018-12-04T14:06:50.661Z,54.78
2018-12-04T14:09:58.249Z,55.64
2018-12-04T14:13:05.912Z,55.87
2018-12-04T14:16:13.437Z,56.36
2018-12-04T14:19:21.203Z,56.98
2018-12-04T14:22:29.178Z,58.00
2018-12-04T14:25:47.044Z,58.44
2018-12-04T14:29:04.530Z,59.36
2018-12-04T14:32:21.937Z,59.59
2018-12-04T14:35:39.407Z,59.81
2018-12-04T14:38:56.778Z,61.00
2018-12-04T14:42:05.142Z,61.50
2018-12-04T14:45:13.345Z,62.50
2018-12-04T14:48:21.177Z,62.74
2018-12-04T14:51:39.197Z,63.44
2018-12-04T14:54:46.848Z,64.22
2018-12-04T14:57:54.680Z,64.51
2018-12-04T15:01:12.522Z,64.41
2018-12-04T15:04:30.372Z,64.64
2018-12-04T15:07:38.794Z,65.86
2018-12-04T15:10:46.596Z,65.99
2018-12-04T15:13:54.505Z,66.13
2018-12-04T15:17:02.403Z,66.43
2018-12-04T15:20:10.661Z,66.16
2018-12-04T15:23:28.176Z,66.33
2018-12-04T15:26:35.873Z,66.69
2018-12-04T15:29:43.760Z,66.68
2018-12-04T15:33:02.547Z,66.51
2018-12-04T15:36:10.528Z,66.50
2018-12-04T15:39:18.690Z,66.14
2018-12-04T15:42:26.540Z,66.42
2018-12-04T15:45:34.036Z,67.09
2018-12-04T15:48:41.529Z,67.45
2018-12-04T15:51:59.155Z,67.71
2018-12-04T15:55:17.336Z,69.47
2018-12-04T15:58:35.072Z,70.94
2018-12-04T16:01:43.101Z,71.57
2018-12-04T16:04:50.668Z,72.32
2018-12-04T16:08:08.611Z,72.14
2018-12-04T16:11:16.208Z,73.27
2018-12-04T16:14:23.708Z,73.32
2018-12-04T16:17:31.259Z,74.15
2018-12-04T16:20:48.828Z,73.77
2018-12-04T16:24:06.669Z,74.44
2018-12-04T16:27:14.204Z,73.48
2018-12-04T16:30:24.214Z,73.68
2018-12-04T16:33:31.673Z,74.06
2018-12-04T16:36:39.217Z,74.54
2018-12-04T16:39:46.811Z,74.45
2018-12-04T16:43:04.532Z,73.91
2018-12-04T16:46:21.993Z,73.37
2018-12-04T16:49:39.395Z,73.42
2018-12-04T16:53:02.792Z,72.87
2018-12-04T16:56:20.227Z,72.79
2018-12-04T16:59:37.593Z,73.20
2018-12-04T17:02:55.052Z,72.71
2018-12-04T17:06:12.501Z,72.67
2018-12-04T17:09:29.900Z,72.57
2018-12-04T17:12:47.585Z,72.71
2018-12-04T17:15:56.106Z,73.17
2018-12-04T17:19:14.673Z,73.11
2018-12-04T17:22:22.176Z,73.02
2018-12-04T17:25:29.736Z,73.52
2018-12-04T17:28:47.157Z,73.90
2018-12-04T17:32:05.111Z,73.48
2018-12-04T17:35:13.088Z,74.14
2018-12-04T17:38:20.583Z,73.98
2018-12-04T17:41:38.652Z,74.11
2018-12-04T17:44:46.132Z,74.32
2018-12-04T17:47:53.652Z,74.83
2018-12-04T17:51:01.322Z,74.55
2018-12-04T17:54:21.217Z,74.50
2018-12-04T17:57:38.673Z,74.36
2018-12-04T18:00:56.114Z,74.60
2018-12-04T18:04:13.500Z,74.46
2018-12-04T18:07:30.869Z,74.68
2018-12-04T18:10:54.341Z,74.99
2018-12-04T18:14:11.893Z,74.88
2018-12-04T18:17:19.904Z,74.65
2018-12-04T18:20:27.384Z,74.43
2018-12-04T18:23:34.965Z,74.44
2018-12-04T18:26:52.649Z,74.69
2018-12-04T18:30:00.553Z,74.35
2018-12-04T18:33:08.205Z,74.67
2018-12-04T18:36:26.244Z,74.72
2018-12-04T18:39:34.225Z,74.81
2018-12-04T18:42:41.855Z,75.06
2018-12-04T18:45:59.264Z,75.34
2018-12-04T18:49:16.769Z,75.36
2018-12-04T18:52:24.688Z,75.81
2018-12-04T18:55:32.184Z,76.50
2018-12-04T18:58:40.567Z,75.91
2018-12-04T19:01:48.149Z,76.32
2018-12-04T19:04:55.770Z,76.12
2018-12-04T19:08:13.372Z,76.46
2018-12-04T19:11:21.123Z,77.03
2018-12-04T19:14:28.634Z,77.27
2018-12-04T19:17:36.264Z,77.87
2018-12-04T19:20:44.565Z,78.15
2018-12-04T19:23:52.189Z,78.60
2018-12-04T19:26:59.665Z,78.54
2018-12-04T19:30:17.678Z,78.82
2018-12-04T19:33:25.234Z,79.10
2018-12-04T19:36:32.713Z,79.46
2018-12-04T19:39:40.312Z,80.10
2018-12-04T19:42:47.670Z,79.91
2018-12-04T19:46:05.653Z,80.22
2018-12-04T19:49:13.185Z,80.20
2018-12-04T19:52:20.737Z,80.33
2018-12-04T19:55:28.692Z,80.01
2018-12-04T19:58:36.703Z,80.06
2018-12-04T20:01:44.347Z,80.12
2018-12-04T20:05:01.701Z,80.18
2018-12-04T20:08:09.490Z,80.08
2018-12-04T20:11:17.112Z,80.44
2018-12-04T20:14:24.604Z,80.38
2018-12-04T20:17:32.172Z,80.52
2018-12-04T20:20:49.532Z,80.71
2018-12-04T20:24:07.052Z,80.60
2018-12-04T20:27:24.572Z,81.05
2018-12-04T20:30:41.931Z,80.67
2018-12-04T20:33:59.376Z,80.91
2018-12-04T20:37:17.500Z,81.23
2018-12-04T20:40:31.386Z,80.99
2018-12-04T20:43:45.159Z,80.89
2018-12-04T20:50:08.789Z,80.80
2018-12-04T20:53:26.851Z,80.83
2018-12-04T20:56:34.430Z,81.01
2018-12-04T20:59:42.359Z,80.93
2018-12-04T21:02:50.073Z,80.34
2018-12-04T21:05:57.676Z,79.93
2018-12-04T21:09:10.913Z,79.82
2018-12-04T21:12:18.894Z,80.36
2018-12-04T21:15:26.645Z,80.52
2018-12-04T21:18:44.334Z,79.76
2018-12-04T21:21:52.154Z,79.94
2018-12-04T21:24:59.797Z,80.28
2018-12-04T21:28:24.903Z,79.43
2018-12-04T21:31:39.999Z,79.41
2018-12-04T21:35:55.899Z,79.77
2018-12-04T21:39:08.709Z,79.75
2018-12-04T21:42:35.196Z,79.05
2018-12-04T21:45:47.869Z,79.39
2018-12-04T21:48:55.637Z,79.64
2018-12-04T21:52:03.228Z,79.39
2018-12-04T21:55:12.071Z,78.54
2018-12-04T21:58:19.917Z,79.03
2018-12-04T22:01:27.532Z,78.91
2018-12-04T22:04:45.075Z,79.52
2018-12-04T22:07:52.682Z,79.71
2018-12-04T22:11:00.736Z,79.77
2018-12-04T22:14:18.724Z,80.08
2018-12-04T22:17:26.303Z,80.41
2018-12-04T22:20:35.176Z,80.81
2018-12-04T22:23:42.963Z,80.41
2018-12-04T22:27:00.546Z,80.51
2018-12-04T22:30:18.442Z,80.24
2018-12-04T22:33:26.245Z,80.97
2018-12-04T22:36:34.020Z,81.10
2018-12-04T22:39:51.671Z,81.40
2018-12-04T22:42:59.324Z,80.99
2018-12-04T22:46:06.866Z,81.01
2018-12-04T22:49:14.546Z,81.00
2018-12-04T22:52:32.421Z,81.31
2018-12-04T22:55:40.092Z,81.15
2018-12-04T22:58:47.669Z,80.67
2018-12-04T23:01:55.890Z,80.96
2018-12-04T23:05:04.764Z,81.61
2018-12-04T23:08:12.831Z,81.96
2018-12-04T23:11:30.787Z,82.72
2018-12-04T23:14:38.540Z,82.62
2018-12-04T23:17:46.369Z,82.74
2018-12-04T23:21:04.071Z,83.17
2018-12-04T23:24:11.696Z,83.49
2018-12-04T23:27:19.357Z,83.56
2018-12-04T23:30:27.097Z,83.35
2018-12-04T23:33:34.696Z,83.13
2018-12-04T23:36:42.201Z,83.37
2018-12-04T23:39:52.192Z,83.10
2018-12-04T23:42:59.896Z,82.89
2018-12-04T23:46:07.397Z,82.85
2018-12-04T23:49:14.957Z,83.30
2018-12-04T23:52:32.744Z,83.64
2018-12-04T23:55:40.274Z,83.76
2018-12-04T23:58:47.920Z,83.37
